sensor_id;sensor_type;location;lat;lon;timestamp;P1;durP1;ratioP1;P2;durP2;ratioP2
77864;SDS011;67061;48.524;9.040;2024-01-27T00:02:10;6.75;;;3.53;;
77864;SDS011;67061;48.524;9.040;2024-01-27T00:04:37;8.50;;;3.35;;
77864;SDS011;67061;48.524;9.040;2024-01-27T00:07:04;10.18;;;4.35;;
77864;SDS011;67061;48.524;9.040;2024-01-27T00:09:31;8.57;;;3.85;;
77864;SDS011;67061;48.524;9.040;2024-01-27T00:12:00;7.78;;;3.45;;
77864;SDS011;67061;48.524;9.040;2024-01-27T00:14:26;6.80;;;4.38;;
77864;SDS011;67061;48.524;9.040;2024-01-27T00:16:54;7.28;;;3.35;;
77864;SDS011;67061;48.524;9.040;2024-01-27T00:19:20;5.97;;;3.20;;
77864;SDS011;67061;48.524;9.040;2024-01-27T00:21:47;8.00;;;3.05;;
77864;SDS011;67061;48.524;9.040;2024-01-27T00:24:14;7.78;;;3.67;;
77864;SDS011;67061;48.524;9.040;2024-01-27T00:26:41;7.85;;;3.08;;
77864;SDS011;67061;48.524;9.040;2024-01-27T00:29:10;6.93;;;3.22;;
77864;SDS011;67061;48.524;9.040;2024-01-27T00:31:37;5.43;;;2.85;;
77864;SDS011;67061;48.524;9.040;2024-01-27T00:34:04;5.63;;;3.05;;
77864;SDS011;67061;48.524;9.040;2024-01-27T00:36:30;5.15;;;3.00;;
77864;SDS011;67061;48.524;9.040;2024-01-27T00:38:57;5.93;;;3.08;;
77864;SDS011;67061;48.524;9.040;2024-01-27T00:41:25;7.03;;;3.03;;
77864;SDS011;67061;48.524;9.040;2024-01-27T00:43:52;8.23;;;3.35;;
77864;SDS011;67061;48.524;9.040;2024-01-27T00:46:20;6.78;;;3.08;;
77864;SDS011;67061;48.524;9.040;2024-01-27T00:48:47;5.00;;;2.78;;
77864;SDS011;67061;48.524;9.040;2024-01-27T00:51:14;6.90;;;2.85;;
77864;SDS011;67061;48.524;9.040;2024-01-27T00:53:43;8.60;;;2.83;;
77864;SDS011;67061;48.524;9.040;2024-01-27T00:56:09;5.30;;;2.65;;
77864;SDS011;67061;48.524;9.040;2024-01-27T00:58:36;7.78;;;3.10;;
77864;SDS011;67061;48.524;9.040;2024-01-27T01:01:03;7.28;;;3.05;;
77864;SDS011;67061;48.524;9.040;2024-01-27T01:03:32;6.90;;;3.30;;
77864;SDS011;67061;48.524;9.040;2024-01-27T01:05:59;6.63;;;3.08;;
77864;SDS011;67061;48.524;9.040;2024-01-27T01:08:26;6.70;;;3.63;;
77864;SDS011;67061;48.524;9.040;2024-01-27T01:10:53;6.75;;;3.30;;
77864;SDS011;67061;48.524;9.040;2024-01-27T01:13:20;7.28;;;3.55;;
77864;SDS011;67061;48.524;9.040;2024-01-27T01:15:47;5.57;;;3.10;;
77864;SDS011;67061;48.524;9.040;2024-01-27T01:18:14;6.18;;;2.95;;
77864;SDS011;67061;48.524;9.040;2024-01-27T01:20:42;6.35;;;2.47;;
77864;SDS011;67061;48.524;9.040;2024-01-27T01:23:09;5.88;;;2.75;;
77864;SDS011;67061;48.524;9.040;2024-01-27T01:25:36;4.40;;;2.58;;
77864;SDS011;67061;48.524;9.040;2024-01-27T01:28:03;6.93;;;2.88;;
77864;SDS011;67061;48.524;9.040;2024-01-27T01:30:30;6.55;;;3.80;;
77864;SDS011;67061;48.524;9.040;2024-01-27T01:32:57;6.25;;;2.50;;
77864;SDS011;67061;48.524;9.040;2024-01-27T01:35:24;7.15;;;3.80;;
77864;SDS011;67061;48.524;9.040;2024-01-27T01:37:53;6.53;;;2.35;;
77864;SDS011;67061;48.524;9.040;2024-01-27T01:40:19;4.88;;;2.80;;
77864;SDS011;67061;48.524;9.040;2024-01-27T01:42:50;4.53;;;2.20;;
77864;SDS011;67061;48.524;9.040;2024-01-27T01:45:17;5.38;;;1.70;;
77864;SDS011;67061;48.524;9.040;2024-01-27T01:47:45;4.95;;;2.53;;
77864;SDS011;67061;48.524;9.040;2024-01-27T01:50:12;4.40;;;2.10;;
77864;SDS011;67061;48.524;9.040;2024-01-27T01:52:39;4.82;;;2.25;;
77864;SDS011;67061;48.524;9.040;2024-01-27T01:55:08;6.50;;;2.55;;
77864;SDS011;67061;48.524;9.040;2024-01-27T01:57:35;4.32;;;1.92;;
77864;SDS011;67061;48.524;9.040;2024-01-27T02:00:03;4.18;;;1.63;;
77864;SDS011;67061;48.524;9.040;2024-01-27T02:02:31;4.38;;;1.80;;
77864;SDS011;67061;48.524;9.040;2024-01-27T02:04:58;5.97;;;2.30;;
77864;SDS011;67061;48.524;9.040;2024-01-27T02:07:24;4.13;;;1.75;;
77864;SDS011;67061;48.524;9.040;2024-01-27T02:09:51;4.13;;;2.20;;
77864;SDS011;67061;48.524;9.040;2024-01-27T02:12:20;3.75;;;2.00;;
77864;SDS011;67061;48.524;9.040;2024-01-27T02:14:47;4.95;;;1.60;;
77864;SDS011;67061;48.524;9.040;2024-01-27T02:17:14;6.72;;;2.10;;
77864;SDS011;67061;48.524;9.040;2024-01-27T02:19:40;5.07;;;2.15;;
77864;SDS011;67061;48.524;9.040;2024-01-27T02:22:07;4.75;;;1.75;;
77864;SDS011;67061;48.524;9.040;2024-01-27T02:24:36;5.57;;;2.38;;
77864;SDS011;67061;48.524;9.040;2024-01-27T02:27:03;4.75;;;2.03;;
77864;SDS011;67061;48.524;9.040;2024-01-27T02:29:30;7.13;;;1.95;;
77864;SDS011;67061;48.524;9.040;2024-01-27T02:31:56;3.97;;;1.73;;
77864;SDS011;67061;48.524;9.040;2024-01-27T02:34:24;4.97;;;2.15;;
77864;SDS011;67061;48.524;9.040;2024-01-27T02:36:50;5.88;;;2.70;;
77864;SDS011;67061;48.524;9.040;2024-01-27T02:39:17;6.50;;;2.50;;
77864;SDS011;67061;48.524;9.040;2024-01-27T02:41:46;5.28;;;2.70;;
77864;SDS011;67061;48.524;9.040;2024-01-27T02:44:12;5.38;;;2.33;;
77864;SDS011;67061;48.524;9.040;2024-01-27T02:46:39;4.72;;;1.85;;
77864;SDS011;67061;48.524;9.040;2024-01-27T02:49:07;7.25;;;2.35;;
77864;SDS011;67061;48.524;9.040;2024-01-27T02:51:34;6.18;;;2.17;;
77864;SDS011;67061;48.524;9.040;2024-01-27T02:54:01;5.32;;;1.92;;
77864;SDS011;67061;48.524;9.040;2024-01-27T02:56:28;7.32;;;2.45;;
77864;SDS011;67061;48.524;9.040;2024-01-27T02:58:56;5.82;;;2.55;;
77864;SDS011;67061;48.524;9.040;2024-01-27T03:01:23;7.47;;;2.70;;
77864;SDS011;67061;48.524;9.040;2024-01-27T03:03:50;7.57;;;3.33;;
77864;SDS011;67061;48.524;9.040;2024-01-27T03:06:17;8.18;;;3.33;;
77864;SDS011;67061;48.524;9.040;2024-01-27T03:08:44;9.60;;;4.13;;
77864;SDS011;67061;48.524;9.040;2024-01-27T03:11:10;9.45;;;3.92;;
77864;SDS011;67061;48.524;9.040;2024-01-27T03:13:37;9.25;;;5.13;;
77864;SDS011;67061;48.524;9.040;2024-01-27T03:16:11;9.02;;;3.83;;
77864;SDS011;67061;48.524;9.040;2024-01-27T03:18:38;9.10;;;4.10;;
77864;SDS011;67061;48.524;9.040;2024-01-27T03:21:05;7.30;;;2.83;;
77864;SDS011;67061;48.524;9.040;2024-01-27T03:23:33;9.82;;;3.13;;
77864;SDS011;67061;48.524;9.040;2024-01-27T03:26:01;6.47;;;4.03;;
77864;SDS011;67061;48.524;9.040;2024-01-27T03:28:29;6.65;;;2.63;;
77864;SDS011;67061;48.524;9.040;2024-01-27T03:30:56;9.05;;;3.63;;
77864;SDS011;67061;48.524;9.040;2024-01-27T03:33:26;7.88;;;3.85;;
77864;SDS011;67061;48.524;9.040;2024-01-27T03:35:54;9.38;;;3.65;;
77864;SDS011;67061;48.524;9.040;2024-01-27T03:38:21;7.03;;;3.85;;
77864;SDS011;67061;48.524;9.040;2024-01-27T03:40:48;9.65;;;4.18;;
77864;SDS011;67061;48.524;9.040;2024-01-27T03:43:15;11.20;;;4.78;;
77864;SDS011;67061;48.524;9.040;2024-01-27T03:45:42;11.13;;;4.32;;
77864;SDS011;67061;48.524;9.040;2024-01-27T03:48:09;7.40;;;3.25;;
77864;SDS011;67061;48.524;9.040;2024-01-27T03:50:37;9.43;;;3.70;;
77864;SDS011;67061;48.524;9.040;2024-01-27T03:53:04;6.80;;;3.15;;
77864;SDS011;67061;48.524;9.040;2024-01-27T03:55:31;8.20;;;3.88;;
77864;SDS011;67061;48.524;9.040;2024-01-27T03:57:59;7.65;;;3.45;;
77864;SDS011;67061;48.524;9.040;2024-01-27T04:00:26;9.52;;;4.03;;
77864;SDS011;67061;48.524;9.040;2024-01-27T04:02:54;11.70;;;4.22;;
77864;SDS011;67061;48.524;9.040;2024-01-27T04:05:21;9.82;;;4.90;;
77864;SDS011;67061;48.524;9.040;2024-01-27T04:07:49;8.93;;;4.28;;
77864;SDS011;67061;48.524;9.040;2024-01-27T04:10:17;10.05;;;5.70;;
77864;SDS011;67061;48.524;9.040;2024-01-27T04:12:45;7.13;;;3.65;;
77864;SDS011;67061;48.524;9.040;2024-01-27T04:15:12;9.50;;;3.50;;
77864;SDS011;67061;48.524;9.040;2024-01-27T04:17:38;7.85;;;4.30;;
77864;SDS011;67061;48.524;9.040;2024-01-27T04:20:06;8.05;;;4.15;;
77864;SDS011;67061;48.524;9.040;2024-01-27T04:22:34;8.35;;;3.63;;
77864;SDS011;67061;48.524;9.040;2024-01-27T04:25:03;7.15;;;3.15;;
77864;SDS011;67061;48.524;9.040;2024-01-27T04:27:30;6.32;;;2.75;;
77864;SDS011;67061;48.524;9.040;2024-01-27T04:29:58;5.45;;;2.72;;
77864;SDS011;67061;48.524;9.040;2024-01-27T04:32:25;7.38;;;3.17;;
77864;SDS011;67061;48.524;9.040;2024-01-27T04:34:52;7.32;;;3.03;;
77864;SDS011;67061;48.524;9.040;2024-01-27T04:37:18;9.63;;;3.10;;
77864;SDS011;67061;48.524;9.040;2024-01-27T04:39:45;5.05;;;2.40;;
77864;SDS011;67061;48.524;9.040;2024-01-27T04:42:14;9.48;;;2.95;;
77864;SDS011;67061;48.524;9.040;2024-01-27T04:44:41;5.78;;;3.03;;
77864;SDS011;67061;48.524;9.040;2024-01-27T04:47:08;7.32;;;4.22;;
77864;SDS011;67061;48.524;9.040;2024-01-27T04:49:35;9.10;;;3.05;;
77864;SDS011;67061;48.524;9.040;2024-01-27T04:52:02;5.82;;;3.30;;
77864;SDS011;67061;48.524;9.040;2024-01-27T04:54:29;7.20;;;2.33;;
77864;SDS011;67061;48.524;9.040;2024-01-27T04:56:56;6.30;;;2.30;;
77864;SDS011;67061;48.524;9.040;2024-01-27T04:59:24;6.35;;;1.80;;
77864;SDS011;67061;48.524;9.040;2024-01-27T05:01:51;6.25;;;2.00;;
77864;SDS011;67061;48.524;9.040;2024-01-27T05:04:18;5.57;;;2.30;;
77864;SDS011;67061;48.524;9.040;2024-01-27T05:06:45;7.93;;;2.38;;
77864;SDS011;67061;48.524;9.040;2024-01-27T05:09:12;5.97;;;2.67;;
77864;SDS011;67061;48.524;9.040;2024-01-27T05:11:39;4.45;;;2.40;;
77864;SDS011;67061;48.524;9.040;2024-01-27T05:14:07;5.18;;;2.55;;
77864;SDS011;67061;48.524;9.040;2024-01-27T05:16:36;6.80;;;2.35;;
77864;SDS011;67061;48.524;9.040;2024-01-27T05:19:03;6.15;;;2.20;;
77864;SDS011;67061;48.524;9.040;2024-01-27T05:21:30;6.20;;;2.53;;
77864;SDS011;67061;48.524;9.040;2024-01-27T05:23:56;5.30;;;3.05;;
77864;SDS011;67061;48.524;9.040;2024-01-27T05:26:23;8.18;;;2.83;;
77864;SDS011;67061;48.524;9.040;2024-01-27T05:28:50;7.32;;;3.28;;
77864;SDS011;67061;48.524;9.040;2024-01-27T05:31:17;8.45;;;3.10;;
77864;SDS011;67061;48.524;9.040;2024-01-27T05:33:45;9.45;;;2.97;;
77864;SDS011;67061;48.524;9.040;2024-01-27T05:36:12;7.78;;;3.72;;
77864;SDS011;67061;48.524;9.040;2024-01-27T05:38:39;10.05;;;2.88;;
77864;SDS011;67061;48.524;9.040;2024-01-27T05:41:06;6.50;;;3.13;;
77864;SDS011;67061;48.524;9.040;2024-01-27T05:43:33;5.85;;;2.53;;
77864;SDS011;67061;48.524;9.040;2024-01-27T05:46:00;8.82;;;3.03;;
77864;SDS011;67061;48.524;9.040;2024-01-27T05:48:27;9.27;;;3.15;;
77864;SDS011;67061;48.524;9.040;2024-01-27T05:50:58;5.78;;;3.17;;
77864;SDS011;67061;48.524;9.040;2024-01-27T05:53:26;8.88;;;3.55;;
77864;SDS011;67061;48.524;9.040;2024-01-27T05:55:55;8.30;;;3.15;;
77864;SDS011;67061;48.524;9.040;2024-01-27T05:58:22;6.97;;;3.22;;
77864;SDS011;67061;48.524;9.040;2024-01-27T06:00:49;8.85;;;3.15;;
77864;SDS011;67061;48.524;9.040;2024-01-27T06:03:16;6.10;;;3.28;;
77864;SDS011;67061;48.524;9.040;2024-01-27T06:05:43;7.95;;;4.05;;
77864;SDS011;67061;48.524;9.040;2024-01-27T06:08:11;7.25;;;3.22;;
77864;SDS011;67061;48.524;9.040;2024-01-27T06:10:38;8.80;;;2.88;;
77864;SDS011;67061;48.524;9.040;2024-01-27T06:13:05;7.10;;;3.05;;
77864;SDS011;67061;48.524;9.040;2024-01-27T06:15:32;6.25;;;2.83;;
77864;SDS011;67061;48.524;9.040;2024-01-27T06:17:59;10.68;;;3.92;;
77864;SDS011;67061;48.524;9.040;2024-01-27T06:20:26;8.23;;;3.33;;
77864;SDS011;67061;48.524;9.040;2024-01-27T06:22:53;7.40;;;3.45;;
77864;SDS011;67061;48.524;9.040;2024-01-27T06:25:21;6.05;;;3.33;;
77864;SDS011;67061;48.524;9.040;2024-01-27T06:27:48;11.13;;;4.25;;
77864;SDS011;67061;48.524;9.040;2024-01-27T06:30:15;8.30;;;4.38;;
77864;SDS011;67061;48.524;9.040;2024-01-27T06:32:43;8.63;;;3.80;;
77864;SDS011;67061;48.524;9.040;2024-01-27T06:35:10;8.48;;;3.85;;
77864;SDS011;67061;48.524;9.040;2024-01-27T06:37:37;11.43;;;4.22;;
77864;SDS011;67061;48.524;9.040;2024-01-27T06:40:04;7.43;;;5.10;;
77864;SDS011;67061;48.524;9.040;2024-01-27T06:42:33;9.40;;;4.45;;
77864;SDS011;67061;48.524;9.040;2024-01-27T06:45:00;9.15;;;3.80;;
77864;SDS011;67061;48.524;9.040;2024-01-27T06:47:28;8.02;;;3.92;;
77864;SDS011;67061;48.524;9.040;2024-01-27T06:49:55;8.05;;;3.88;;
77864;SDS011;67061;48.524;9.040;2024-01-27T06:52:22;10.95;;;4.88;;
77864;SDS011;67061;48.524;9.040;2024-01-27T06:54:49;26.77;;;5.72;;
77864;SDS011;67061;48.524;9.040;2024-01-27T06:57:19;34.25;;;6.35;;
77864;SDS011;67061;48.524;9.040;2024-01-27T06:59:49;12.07;;;5.07;;
77864;SDS011;67061;48.524;9.040;2024-01-27T07:02:19;32.92;;;5.32;;
77864;SDS011;67061;48.524;9.040;2024-01-27T07:04:48;18.92;;;5.20;;
77864;SDS011;67061;48.524;9.040;2024-01-27T07:07:15;18.50;;;5.45;;
77864;SDS011;67061;48.524;9.040;2024-01-27T07:09:42;13.43;;;4.72;;
77864;SDS011;67061;48.524;9.040;2024-01-27T07:12:09;16.42;;;8.15;;
77864;SDS011;67061;48.524;9.040;2024-01-27T07:14:36;23.27;;;15.43;;
77864;SDS011;67061;48.524;9.040;2024-01-27T07:17:04;19.38;;;10.90;;
77864;SDS011;67061;48.524;9.040;2024-01-27T07:19:31;12.45;;;6.13;;
77864;SDS011;67061;48.524;9.040;2024-01-27T07:21:58;13.63;;;5.80;;
77864;SDS011;67061;48.524;9.040;2024-01-27T07:24:25;11.35;;;5.22;;
77864;SDS011;67061;48.524;9.040;2024-01-27T07:26:52;12.13;;;4.78;;
77864;SDS011;67061;48.524;9.040;2024-01-27T07:29:19;12.07;;;5.90;;
77864;SDS011;67061;48.524;9.040;2024-01-27T07:31:46;9.75;;;5.38;;
77864;SDS011;67061;48.524;9.040;2024-01-27T07:34:15;12.63;;;5.68;;
77864;SDS011;67061;48.524;9.040;2024-01-27T07:36:42;20.90;;;6.88;;
77864;SDS011;67061;48.524;9.040;2024-01-27T07:39:09;28.48;;;6.05;;
77864;SDS011;67061;48.524;9.040;2024-01-27T07:41:35;24.67;;;5.43;;
77864;SDS011;67061;48.524;9.040;2024-01-27T07:44:09;20.13;;;5.65;;
77864;SDS011;67061;48.524;9.040;2024-01-27T07:46:36;19.42;;;6.45;;
77864;SDS011;67061;48.524;9.040;2024-01-27T07:49:03;30.33;;;5.93;;
77864;SDS011;67061;48.524;9.040;2024-01-27T07:51:31;20.63;;;5.13;;
77864;SDS011;67061;48.524;9.040;2024-01-27T07:53:58;39.28;;;6.35;;
77864;SDS011;67061;48.524;9.040;2024-01-27T07:56:26;26.45;;;6.20;;
77864;SDS011;67061;48.524;9.040;2024-01-27T07:58:53;19.42;;;6.35;;
77864;SDS011;67061;48.524;9.040;2024-01-27T08:01:20;42.20;;;5.88;;
77864;SDS011;67061;48.524;9.040;2024-01-27T08:03:47;28.98;;;5.90;;
77864;SDS011;67061;48.524;9.040;2024-01-27T08:06:15;20.88;;;5.78;;
77864;SDS011;67061;48.524;9.040;2024-01-27T08:08:45;41.20;;;6.72;;
77864;SDS011;67061;48.524;9.040;2024-01-27T08:11:13;20.95;;;5.20;;
77864;SDS011;67061;48.524;9.040;2024-01-27T08:13:40;19.20;;;5.30;;
77864;SDS011;67061;48.524;9.040;2024-01-27T08:16:07;20.30;;;5.28;;
77864;SDS011;67061;48.524;9.040;2024-01-27T08:18:35;14.23;;;4.90;;
77864;SDS011;67061;48.524;9.040;2024-01-27T08:21:04;10.98;;;3.70;;
77864;SDS011;67061;48.524;9.040;2024-01-27T08:23:31;24.92;;;4.50;;
77864;SDS011;67061;48.524;9.040;2024-01-27T08:25:59;23.52;;;4.57;;
77864;SDS011;67061;48.524;9.040;2024-01-27T08:28:26;8.57;;;4.25;;
77864;SDS011;67061;48.524;9.040;2024-01-27T08:30:53;27.90;;;5.00;;
77864;SDS011;67061;48.524;9.040;2024-01-27T08:33:21;53.88;;;5.22;;
77864;SDS011;67061;48.524;9.040;2024-01-27T08:35:48;24.48;;;4.38;;
77864;SDS011;67061;48.524;9.040;2024-01-27T08:38:15;22.40;;;4.60;;
77864;SDS011;67061;48.524;9.040;2024-01-27T08:40:41;49.08;;;4.88;;
77864;SDS011;67061;48.524;9.040;2024-01-27T08:43:10;46.15;;;5.28;;
77864;SDS011;67061;48.524;9.040;2024-01-27T08:45:37;28.77;;;4.55;;
77864;SDS011;67061;48.524;9.040;2024-01-27T08:48:05;22.25;;;4.05;;
77864;SDS011;67061;48.524;9.040;2024-01-27T08:50:33;23.75;;;3.80;;
77864;SDS011;67061;48.524;9.040;2024-01-27T08:53:00;19.92;;;4.57;;
77864;SDS011;67061;48.524;9.040;2024-01-27T08:55:27;21.55;;;4.20;;
77864;SDS011;67061;48.524;9.040;2024-01-27T08:57:55;12.27;;;4.50;;
77864;SDS011;67061;48.524;9.040;2024-01-27T09:00:23;13.55;;;4.18;;
77864;SDS011;67061;48.524;9.040;2024-01-27T09:02:51;12.38;;;4.10;;
77864;SDS011;67061;48.524;9.040;2024-01-27T09:05:18;19.90;;;4.10;;
77864;SDS011;67061;48.524;9.040;2024-01-27T09:07:45;12.98;;;4.22;;
77864;SDS011;67061;48.524;9.040;2024-01-27T09:10:12;9.93;;;4.65;;
77864;SDS011;67061;48.524;9.040;2024-01-27T09:12:40;12.45;;;4.05;;
77864;SDS011;67061;48.524;9.040;2024-01-27T09:15:08;12.30;;;4.47;;
77864;SDS011;67061;48.524;9.040;2024-01-27T09:17:36;17.60;;;4.22;;
77864;SDS011;67061;48.524;9.040;2024-01-27T09:20:03;20.77;;;4.50;;
77864;SDS011;67061;48.524;9.040;2024-01-27T09:22:31;11.60;;;4.90;;
77864;SDS011;67061;48.524;9.040;2024-01-27T09:24:58;22.77;;;5.40;;
77864;SDS011;67061;48.524;9.040;2024-01-27T09:27:25;13.80;;;5.15;;
77864;SDS011;67061;48.524;9.040;2024-01-27T09:29:52;10.88;;;6.82;;
77864;SDS011;67061;48.524;9.040;2024-01-27T09:32:18;11.23;;;4.85;;
77864;SDS011;67061;48.524;9.040;2024-01-27T09:34:47;7.70;;;3.60;;
77864;SDS011;67061;48.524;9.040;2024-01-27T09:37:14;9.32;;;4.47;;
77864;SDS011;67061;48.524;9.040;2024-01-27T09:39:41;11.90;;;4.18;;
77864;SDS011;67061;48.524;9.040;2024-01-27T09:42:07;10.05;;;4.35;;
77864;SDS011;67061;48.524;9.040;2024-01-27T09:44:40;15.95;;;5.78;;
77864;SDS011;67061;48.524;9.040;2024-01-27T09:49:38;10.68;;;5.22;;
77864;SDS011;67061;48.524;9.040;2024-01-27T09:52:07;10.88;;;4.68;;
77864;SDS011;67061;48.524;9.040;2024-01-27T09:54:35;8.07;;;4.30;;
77864;SDS011;67061;48.524;9.040;2024-01-27T09:57:02;14.70;;;4.88;;
77864;SDS011;67061;48.524;9.040;2024-01-27T09:59:29;10.95;;;5.70;;
77864;SDS011;67061;48.524;9.040;2024-01-27T10:01:59;10.73;;;4.07;;
77864;SDS011;67061;48.524;9.040;2024-01-27T10:04:28;8.95;;;4.53;;
77864;SDS011;67061;48.524;9.040;2024-01-27T10:06:56;12.50;;;4.35;;
77864;SDS011;67061;48.524;9.040;2024-01-27T10:09:25;9.57;;;3.92;;
77864;SDS011;67061;48.524;9.040;2024-01-27T10:11:52;8.27;;;4.50;;
77864;SDS011;67061;48.524;9.040;2024-01-27T10:14:21;19.27;;;4.00;;
77864;SDS011;67061;48.524;9.040;2024-01-27T10:16:48;11.18;;;4.90;;
77864;SDS011;67061;48.524;9.040;2024-01-27T10:19:16;13.48;;;4.85;;
77864;SDS011;67061;48.524;9.040;2024-01-27T10:21:43;11.07;;;4.55;;
77864;SDS011;67061;48.524;9.040;2024-01-27T10:24:10;10.80;;;4.95;;
77864;SDS011;67061;48.524;9.040;2024-01-27T10:26:39;13.88;;;4.85;;
77864;SDS011;67061;48.524;9.040;2024-01-27T10:29:06;10.93;;;4.72;;
77864;SDS011;67061;48.524;9.040;2024-01-27T10:31:34;12.20;;;4.72;;
77864;SDS011;67061;48.524;9.040;2024-01-27T10:34:01;10.75;;;4.72;;
77864;SDS011;67061;48.524;9.040;2024-01-27T10:36:39;9.20;;;4.55;;
77864;SDS011;67061;48.524;9.040;2024-01-27T10:39:16;10.52;;;4.75;;
77864;SDS011;67061;48.524;9.040;2024-01-27T10:41:46;14.07;;;4.45;;
77864;SDS011;67061;48.524;9.040;2024-01-27T10:44:14;15.13;;;5.35;;
77864;SDS011;67061;48.524;9.040;2024-01-27T10:46:43;12.70;;;5.95;;
77864;SDS011;67061;48.524;9.040;2024-01-27T10:49:12;10.43;;;6.63;;
77864;SDS011;67061;48.524;9.040;2024-01-27T10:51:40;9.68;;;5.15;;
77864;SDS011;67061;48.524;9.040;2024-01-27T10:54:13;11.07;;;6.32;;
77864;SDS011;67061;48.524;9.040;2024-01-27T10:56:45;11.77;;;5.97;;
77864;SDS011;67061;48.524;9.040;2024-01-27T10:59:13;12.65;;;6.32;;
77864;SDS011;67061;48.524;9.040;2024-01-27T11:01:42;12.73;;;6.82;;
77864;SDS011;67061;48.524;9.040;2024-01-27T11:04:10;12.70;;;6.40;;
77864;SDS011;67061;48.524;9.040;2024-01-27T11:06:39;10.13;;;5.30;;
77864;SDS011;67061;48.524;9.040;2024-01-27T11:09:08;11.32;;;5.72;;
77864;SDS011;67061;48.524;9.040;2024-01-27T11:11:36;13.93;;;6.53;;
77864;SDS011;67061;48.524;9.040;2024-01-27T11:14:05;11.55;;;6.25;;
77864;SDS011;67061;48.524;9.040;2024-01-27T11:16:34;14.18;;;6.00;;
77864;SDS011;67061;48.524;9.040;2024-01-27T11:19:03;10.63;;;6.28;;
77864;SDS011;67061;48.524;9.040;2024-01-27T11:21:31;10.40;;;5.97;;
77864;SDS011;67061;48.524;9.040;2024-01-27T11:23:57;11.65;;;6.22;;
77864;SDS011;67061;48.524;9.040;2024-01-27T11:26:24;11.70;;;5.95;;
77864;SDS011;67061;48.524;9.040;2024-01-27T11:28:52;13.50;;;6.70;;
77864;SDS011;67061;48.524;9.040;2024-01-27T11:31:20;12.20;;;6.47;;
77864;SDS011;67061;48.524;9.040;2024-01-27T11:33:47;13.85;;;6.57;;
77864;SDS011;67061;48.524;9.040;2024-01-27T11:36:19;11.80;;;6.60;;
77864;SDS011;67061;48.524;9.040;2024-01-27T11:38:48;13.07;;;7.00;;
77864;SDS011;67061;48.524;9.040;2024-01-27T11:41:25;14.60;;;7.10;;
77864;SDS011;67061;48.524;9.040;2024-01-27T11:43:53;16.65;;;6.47;;
77864;SDS011;67061;48.524;9.040;2024-01-27T11:46:22;13.18;;;7.07;;
77864;SDS011;67061;48.524;9.040;2024-01-27T11:48:49;13.68;;;6.90;;
77864;SDS011;67061;48.524;9.040;2024-01-27T11:51:16;14.35;;;5.15;;
77864;SDS011;67061;48.524;9.040;2024-01-27T11:53:44;13.52;;;4.20;;
77864;SDS011;67061;48.524;9.040;2024-01-27T11:56:11;15.65;;;5.80;;
77864;SDS011;67061;48.524;9.040;2024-01-27T11:58:45;6.43;;;3.83;;
77864;SDS011;67061;48.524;9.040;2024-01-27T12:01:13;7.25;;;4.20;;
77864;SDS011;67061;48.524;9.040;2024-01-27T12:03:42;12.50;;;5.28;;
77864;SDS011;67061;48.524;9.040;2024-01-27T12:06:09;19.63;;;8.90;;
77864;SDS011;67061;48.524;9.040;2024-01-27T12:08:36;19.70;;;7.75;;
77864;SDS011;67061;48.524;9.040;2024-01-27T12:11:03;23.25;;;7.93;;
77864;SDS011;67061;48.524;9.040;2024-01-27T12:13:30;24.00;;;10.35;;
77864;SDS011;67061;48.524;9.040;2024-01-27T12:15:57;19.80;;;9.40;;
77864;SDS011;67061;48.524;9.040;2024-01-27T12:18:24;21.13;;;9.07;;
77864;SDS011;67061;48.524;9.040;2024-01-27T12:20:55;19.83;;;9.02;;
77864;SDS011;67061;48.524;9.040;2024-01-27T12:23:23;18.02;;;8.77;;
77864;SDS011;67061;48.524;9.040;2024-01-27T12:25:52;16.17;;;8.35;;
77864;SDS011;67061;48.524;9.040;2024-01-27T12:28:21;17.58;;;7.63;;
77864;SDS011;67061;48.524;9.040;2024-01-27T12:30:48;15.32;;;7.32;;
77864;SDS011;67061;48.524;9.040;2024-01-27T12:33:16;15.32;;;7.53;;
77864;SDS011;67061;48.524;9.040;2024-01-27T12:35:45;14.07;;;7.35;;
77864;SDS011;67061;48.524;9.040;2024-01-27T12:38:13;12.88;;;6.70;;
77864;SDS011;67061;48.524;9.040;2024-01-27T12:40:40;10.38;;;5.78;;
77864;SDS011;67061;48.524;9.040;2024-01-27T12:43:07;11.82;;;6.57;;
77864;SDS011;67061;48.524;9.040;2024-01-27T12:45:34;11.32;;;6.15;;
77864;SDS011;67061;48.524;9.040;2024-01-27T12:48:03;10.95;;;6.55;;
77864;SDS011;67061;48.524;9.040;2024-01-27T12:50:30;12.45;;;6.38;;
77864;SDS011;67061;48.524;9.040;2024-01-27T12:52:59;10.77;;;6.35;;
77864;SDS011;67061;48.524;9.040;2024-01-27T12:55:27;10.40;;;5.93;;
77864;SDS011;67061;48.524;9.040;2024-01-27T12:57:54;10.13;;;6.07;;
77864;SDS011;67061;48.524;9.040;2024-01-27T13:00:21;10.18;;;5.70;;
77864;SDS011;67061;48.524;9.040;2024-01-27T13:02:47;15.40;;;8.68;;
77864;SDS011;67061;48.524;9.040;2024-01-27T13:05:14;11.48;;;7.35;;
77864;SDS011;67061;48.524;9.040;2024-01-27T13:07:41;12.60;;;7.20;;
77864;SDS011;67061;48.524;9.040;2024-01-27T13:10:10;12.50;;;6.85;;
77864;SDS011;67061;48.524;9.040;2024-01-27T13:12:38;11.95;;;7.18;;
77864;SDS011;67061;48.524;9.040;2024-01-27T13:15:05;15.95;;;7.80;;
77864;SDS011;67061;48.524;9.040;2024-01-27T13:17:32;10.77;;;7.28;;
77864;SDS011;67061;48.524;9.040;2024-01-27T13:20:00;10.75;;;5.95;;
77864;SDS011;67061;48.524;9.040;2024-01-27T13:22:27;11.50;;;7.90;;
77864;SDS011;67061;48.524;9.040;2024-01-27T13:24:54;13.00;;;7.50;;
77864;SDS011;67061;48.524;9.040;2024-01-27T13:27:23;16.70;;;8.60;;
77864;SDS011;67061;48.524;9.040;2024-01-27T13:29:51;21.45;;;10.70;;
77864;SDS011;67061;48.524;9.040;2024-01-27T13:32:18;30.00;;;14.32;;
77864;SDS011;67061;48.524;9.040;2024-01-27T13:34:46;45.03;;;18.65;;
77864;SDS011;67061;48.524;9.040;2024-01-27T13:37:14;52.38;;;24.92;;
77864;SDS011;67061;48.524;9.040;2024-01-27T13:39:42;49.05;;;23.58;;
77864;SDS011;67061;48.524;9.040;2024-01-27T13:42:08;48.92;;;23.20;;
77864;SDS011;67061;48.524;9.040;2024-01-27T13:44:36;47.72;;;23.45;;
77864;SDS011;67061;48.524;9.040;2024-01-27T13:47:04;51.38;;;22.98;;
77864;SDS011;67061;48.524;9.040;2024-01-27T13:49:34;47.33;;;23.30;;
77864;SDS011;67061;48.524;9.040;2024-01-27T13:52:02;49.42;;;23.25;;
77864;SDS011;67061;48.524;9.040;2024-01-27T13:54:29;49.38;;;22.73;;
77864;SDS011;67061;48.524;9.040;2024-01-27T13:56:58;48.22;;;21.85;;
77864;SDS011;67061;48.524;9.040;2024-01-27T13:59:25;46.17;;;21.73;;
77864;SDS011;67061;48.524;9.040;2024-01-27T14:01:52;45.85;;;21.38;;
77864;SDS011;67061;48.524;9.040;2024-01-27T14:04:21;49.00;;;22.30;;
77864;SDS011;67061;48.524;9.040;2024-01-27T14:06:49;37.88;;;19.95;;
77864;SDS011;67061;48.524;9.040;2024-01-27T14:09:16;39.55;;;19.67;;
77864;SDS011;67061;48.524;9.040;2024-01-27T14:11:44;36.55;;;18.20;;
77864;SDS011;67061;48.524;9.040;2024-01-27T14:14:11;29.58;;;15.45;;
77864;SDS011;67061;48.524;9.040;2024-01-27T14:16:38;29.85;;;15.40;;
77864;SDS011;67061;48.524;9.040;2024-01-27T14:19:06;30.95;;;15.05;;
77864;SDS011;67061;48.524;9.040;2024-01-27T14:21:35;29.90;;;14.63;;
77864;SDS011;67061;48.524;9.040;2024-01-27T14:24:02;33.10;;;17.38;;
77864;SDS011;67061;48.524;9.040;2024-01-27T14:26:31;34.30;;;17.30;;
77864;SDS011;67061;48.524;9.040;2024-01-27T14:28:58;34.90;;;17.75;;
77864;SDS011;67061;48.524;9.040;2024-01-27T14:31:25;33.25;;;17.08;;
77864;SDS011;67061;48.524;9.040;2024-01-27T14:33:52;30.00;;;15.85;;
77864;SDS011;67061;48.524;9.040;2024-01-27T14:36:19;30.90;;;15.38;;
77864;SDS011;67061;48.524;9.040;2024-01-27T14:38:49;23.65;;;12.63;;
77864;SDS011;67061;48.524;9.040;2024-01-27T14:41:16;23.13;;;11.93;;
77864;SDS011;67061;48.524;9.040;2024-01-27T14:43:43;21.73;;;12.13;;
77864;SDS011;67061;48.524;9.040;2024-01-27T14:46:10;22.92;;;12.32;;